Time;durP1;ratioP1;P1;durP2;ratioP2;P2;SDS_P1;SDS_P2;PMS_P1;PMS_P2;Temp;Humidity;BMP_temperature;BMP_pressure;BME280_temperature;BME280_humidity;BME280_pressure;Samples;Min_cycle;Max_cycle;Signal;HPM_P1;HPM_P2
2022/05/10 00:02:22;;;;;;;2.60;1.63;;;;;;;;;;6176684;23;20021;-55
2022/05/10 00:04:49;;;;;;;1.50;0.73;;;;;;;;;;6175506;23;20025;-54
2022/05/10 00:07:14;;;;;;;1.02;0.73;;;;;;;;;;6176215;23;20009;-55
2022/05/10 00:09:40;;;;;;;0.30;0.30;;;;;;;;;;6175117;23;20013;-54
2022/05/10 00:19:22;;;;;;;2.95;0.43;;;;;;;;;;6172770;23;20020;-55
2022/05/10 00:21:48;;;;;;;1.02;0.77;;;;;;;;;;6175524;23;20359;-56
2022/05/10 00:24:13;;;;;;;0.88;0.57;;;;;;;;;;6175626;23;20347;-54
2022/05/10 00:26:39;;;;;;;1.02;0.95;;;;;;;;;;6175506;23;20017;-56
2022/05/10 00:29:04;;;;;;;0.47;0.47;;;;;;;;;;6175813;23;20009;-56
2022/05/10 00:31:30;;;;;;;0.38;0.28;;;;;;;;;;6174277;23;20028;-56
2022/05/10 00:33:57;;;;;;;0.75;0.65;;;;;;;;;;6176376;23;20020;-57
2022/05/10 00:36:23;;;;;;;0.50;0.43;;;;;;;;;;6175507;23;20359;-54
2022/05/10 00:38:49;;;;;;;0.70;0.70;;;;;;;;;;6175463;23;20173;-57
2022/05/10 00:41:17;;;;;;;0.60;0.30;;;;;;;;;;6175543;23;20244;-56
2022/05/10 00:43:44;;;;;;;0.40;0.40;;;;;;;;;;6173709;23;20009;-53
2022/05/10 00:46:12;;;;;;;0.90;0.68;;;;;;;;;;6175703;23;20017;-55
2022/05/10 00:48:45;;;;;;;0.80;0.80;;;;;;;;;;6174668;23;20024;-55
2022/05/10 00:51:29;;;;;;;2.85;0.55;;;;;;;;;;6175789;23;20013;-56
2022/05/10 00:53:54;;;;;;;0.65;0.47;;;;;;;;;;6175440;23;20048;-54
2022/05/10 00:56:41;;;;;;;0.47;0.47;;;;;;;;;;6175256;23;20033;-53
2022/05/10 00:59:07;;;;;;;0.22;0.22;;;;;;;;;;6215568;23;20034;-56
2022/05/10 01:01:34;;;;;;;0.22;0.20;;;;;;;;;;6234736;23;20020;-56
2022/05/10 01:04:05;;;;;;;0.30;0.30;;;;;;;;;;6236379;23;20012;-55
2022/05/10 01:06:36;;;;;;;0.50;0.50;;;;;;;;;;6234125;23;20847;-55
2022/05/10 01:09:08;;;;;;;0.38;0.38;;;;;;;;;;6236074;23;20054;-54
2022/05/10 01:11:38;;;;;;;0.05;0.05;;;;;;;;;;6234054;23;20077;-57
2022/05/10 01:14:06;;;;;;;1.83;0.38;;;;;;;;;;6235366;23;20016;-55
2022/05/10 01:16:31;;;;;;;0.52;0.30;;;;;;;;;;6234579;23;20027;-53
2022/05/10 01:18:56;;;;;;;0.77;0.15;;;;;;;;;;6235241;23;20060;-51
2022/05/10 01:21:22;;;;;;;0.75;0.75;;;;;;;;;;6235026;23;20016;-54
2022/05/10 01:23:57;;;;;;;0.65;0.65;;;;;;;;;;6236084;23;20019;-55
2022/05/10 01:26:23;;;;;;;0.38;0.38;;;;;;;;;;6232437;23;20012;-54
2022/05/10 01:28:50;;;;;;;0.98;0.63;;;;;;;;;;6235089;23;20094;-55
2022/05/10 01:31:19;;;;;;;0.17;0.17;;;;;;;;;;6233974;23;20642;-54
2022/05/10 01:33:48;;;;;;;0.65;0.20;;;;;;;;;;6236932;23;20083;-54
2022/05/10 01:36:16;;;;;;;0.77;0.57;;;;;;;;;;6233431;23;20035;-55
2022/05/10 01:39:00;;;;;;;0.17;0.17;;;;;;;;;;6236225;23;20012;-56
2022/05/10 01:41:34;;;;;;;0.82;0.82;;;;;;;;;;6235733;23;20020;-56
2022/05/10 01:44:05;;;;;;;0.25;0.25;;;;;;;;;;6235189;23;20019;-55
2022/05/10 01:46:31;;;;;;;1.85;1.00;;;;;;;;;;6235834;23;20023;-57
2022/05/10 01:49:05;;;;;;;0.55;0.50;;;;;;;;;;6235062;23;20012;-55
2022/05/10 01:51:33;;;;;;;2.00;1.13;;;;;;;;;;6232105;23;20579;-56
2022/05/10 01:53:58;;;;;;;1.02;0.82;;;;;;;;;;6208628;23;20028;-54
2022/05/10 01:56:25;;;;;;;1.27;0.60;;;;;;;;;;6234681;23;20128;-55
2022/05/10 01:58:51;;;;;;;0.40;0.40;;;;;;;;;;6234557;23;20075;-55
2022/05/10 02:01:17;;;;;;;0.20;0.20;;;;;;;;;;6232330;23;20082;-54
2022/05/10 02:03:52;;;;;;;0.40;0.40;;;;;;;;;;6233225;23;20077;-56
2022/05/10 02:06:37;;;;;;;0.52;0.50;;;;;;;;;;6234203;23;20273;-56
2022/05/10 02:09:05;;;;;;;2.05;1.42;;;;;;;;;;6235790;23;20016;-54
2022/05/10 02:11:32;;;;;;;0.80;0.57;;;;;;;;;;6235976;23;20023;-57
2022/05/10 02:14:20;;;;;;;1.08;0.80;;;;;;;;;;6238048;23;20078;-56
2022/05/10 02:17:06;;;;;;;0.55;0.30;;;;;;;;;;6216948;23;20016;-56
2022/05/10 02:19:43;;;;;;;0.45;0.30;;;;;;;;;;6233673;23;20008;-54
2022/05/10 02:22:21;;;;;;;0.88;0.80;;;;;;;;;;6237513;23;20430;-55
2022/05/10 02:24:50;;;;;;;2.20;0.28;;;;;;;;;;6237674;23;20711;-55
2022/05/10 02:27:20;;;;;;;1.55;0.82;;;;;;;;;;6236559;23;20016;-54
2022/05/10 02:29:55;;;;;;;2.63;1.40;;;;;;;;;;6236806;23;20020;-55
2022/05/10 02:35:09;;;;;;;2.42;0.65;;;;;;;;;;6230325;23;20051;-55
2022/05/10 02:37:35;;;;;;;0.20;0.20;;;;;;;;;;6233965;23;20008;-56
2022/05/10 02:40:00;;;;;;;2.55;1.10;;;;;;;;;;6237127;23;20102;-55
2022/05/10 02:42:26;;;;;;;1.13;0.40;;;;;;;;;;6236081;23;20014;-54
2022/05/10 02:44:54;;;;;;;1.67;0.95;;;;;;;;;;6237645;23;20694;-54
2022/05/10 02:47:38;;;;;;;0.52;0.50;;;;;;;;;;6234696;23;20020;-55
2022/05/10 02:50:04;;;;;;;2.15;0.20;;;;;;;;;;6235489;23;20016;-56
2022/05/10 02:52:30;;;;;;;2.38;1.20;;;;;;;;;;6233241;23;20073;-56
2022/05/10 02:54:57;;;;;;;1.02;0.32;;;;;;;;;;6237316;23;20043;-53
2022/05/10 02:57:24;;;;;;;0.77;0.38;;;;;;;;;;6230832;23;20081;-54
2022/05/10 02:59:51;;;;;;;1.58;0.93;;;;;;;;;;6233471;23;20032;-52
2022/05/10 03:02:29;;;;;;;0.10;0.10;;;;;;;;;;6230042;23;20012;-52
2022/05/10 03:04:58;;;;;;;1.05;1.05;;;;;;;;;;6231561;23;20248;-56
2022/05/10 03:07:25;;;;;;;1.05;0.70;;;;;;;;;;6232874;23;20016;-53
2022/05/10 03:09:50;;;;;;;2.60;0.50;;;;;;;;;;6233245;23;20047;-56
2022/05/10 03:12:16;;;;;;;3.95;1.48;;;;;;;;;;6230634;23;20004;-53
2022/05/10 03:14:41;;;;;;;0.38;0.38;;;;;;;;;;6233373;23;20040;-53
2022/05/10 03:17:08;;;;;;;0.65;0.65;;;;;;;;;;6230335;23;20060;-53
2022/05/10 03:19:34;;;;;;;0.82;0.82;;;;;;;;;;6232991;23;20012;-53
2022/05/10 03:21:59;;;;;;;0.63;0.63;;;;;;;;;;6232747;23;20103;-53
2022/05/10 03:24:24;;;;;;;0.73;0.63;;;;;;;;;;6232186;23;20023;-52
2022/05/10 03:26:51;;;;;;;1.67;1.02;;;;;;;;;;6233769;23;20012;-53
2022/05/10 03:29:16;;;;;;;1.55;0.30;;;;;;;;;;6231467;23;20082;-52
2022/05/10 03:31:42;;;;;;;1.55;1.00;;;;;;;;;;6233682;23;20008;-50
2022/05/10 03:36:51;;;;;;;0.63;0.43;;;;;;;;;;6232701;23;20031;-51
2022/05/10 03:39:16;;;;;;;0.90;0.90;;;;;;;;;;6231410;23;20206;-55
2022/05/10 03:41:41;;;;;;;1.48;0.52;;;;;;;;;;6233091;23;20012;-53
2022/05/10 03:44:07;;;;;;;0.65;0.52;;;;;;;;;;6232600;23;20239;-54
2022/05/10 03:46:32;;;;;;;0.85;0.82;;;;;;;;;;6230819;23;20016;-54
2022/05/10 03:48:58;;;;;;;2.05;1.08;;;;;;;;;;6232640;23;20027;-52
2022/05/10 03:51:23;;;;;;;0.75;0.75;;;;;;;;;;6230128;23;20027;-54
2022/05/10 03:53:48;;;;;;;1.15;0.82;;;;;;;;;;6233587;23;20449;-53
2022/05/10 03:56:13;;;;;;;0.22;0.22;;;;;;;;;;6230647;23;20024;-53
2022/05/10 03:58:39;;;;;;;0.80;0.75;;;;;;;;;;6233379;23;20035;-53
2022/05/10 04:01:07;;;;;;;0.30;0.30;;;;;;;;;;6232161;23;20183;-55
2022/05/10 04:03:33;;;;;;;2.55;1.10;;;;;;;;;;6231986;23;20100;-53
2022/05/10 04:05:58;;;;;;;1.23;0.70;;;;;;;;;;6232412;23;20099;-53
2022/05/10 04:08:24;;;;;;;0.65;0.65;;;;;;;;;;6231675;23;20091;-55
2022/05/10 04:10:49;;;;;;;1.00;0.30;;;;;;;;;;6232714;23;20011;-55
2022/05/10 04:13:15;;;;;;;0.55;0.55;;;;;;;;;;6231722;23;20015;-52
2022/05/10 04:15:40;;;;;;;0.68;0.28;;;;;;;;;;6233019;23;20024;-53
2022/05/10 04:18:05;;;;;;;0.10;0.10;;;;;;;;;;6231929;23;20450;-52
2022/05/10 04:20:30;;;;;;;0.90;0.45;;;;;;;;;;6232542;23;20441;-53
2022/05/10 04:22:56;;;;;;;0.77;0.77;;;;;;;;;;6232517;23;20533;-52
2022/05/10 04:25:25;;;;;;;0.30;0.30;;;;;;;;;;6231839;23;20016;-53
2022/05/10 04:27:51;;;;;;;0.55;0.45;;;;;;;;;;6232055;23;20020;-55
2022/05/10 04:30:17;;;;;;;0.32;0.32;;;;;;;;;;6230753;23;20020;-53
2022/05/10 04:32:42;;;;;;;0.38;0.38;;;;;;;;;;6205099;23;20015;-52
2022/05/10 04:35:07;;;;;;;2.42;0.90;;;;;;;;;;6232295;23;20020;-51
2022/05/10 04:37:33;;;;;;;0.52;0.20;;;;;;;;;;6232062;23;20073;-50
2022/05/10 04:42:43;;;;;;;0.20;0.20;;;;;;;;;;6232157;23;20047;-54
2022/05/10 04:45:08;;;;;;;0.20;0.20;;;;;;;;;;6231051;23;20008;-54
2022/05/10 04:47:33;;;;;;;0.13;0.13;;;;;;;;;;6232200;23;20150;-54
2022/05/10 04:49:59;;;;;;;0.50;0.50;;;;;;;;;;6232127;23;20016;-53
2022/05/10 04:52:24;;;;;;;0.45;0.45;;;;;;;;;;6234626;23;20066;-54
2022/05/10 04:54:49;;;;;;;1.48;0.80;;;;;;;;;;6235079;23;20008;-53
2022/05/10 04:57:15;;;;;;;1.58;1.27;;;;;;;;;;6234835;23;20048;-55
2022/05/10 04:59:40;;;;;;;0.15;0.15;;;;;;;;;;6235251;23;20103;-55
2022/05/10 05:02:05;;;;;;;1.33;0.55;;;;;;;;;;6234855;23;20023;-54
2022/05/10 05:04:30;;;;;;;0.77;0.57;;;;;;;;;;6234327;23;20077;-55
2022/05/10 05:06:56;;;;;;;0.40;0.40;;;;;;;;;;6235354;23;20016;-55
2022/05/10 05:09:21;;;;;;;0.55;0.55;;;;;;;;;;6234372;23;20067;-52
2022/05/10 05:11:46;;;;;;;0.93;0.93;;;;;;;;;;6233975;23;20016;-54
2022/05/10 05:14:12;;;;;;;0.38;0.38;;;;;;;;;;6207863;23;20012;-52
2022/05/10 05:16:37;;;;;;;0.28;0.28;;;;;;;;;;6236044;23;20599;-54
2022/05/10 05:19:03;;;;;;;0.08;0.08;;;;;;;;;;6235264;23;20031;-55
2022/05/10 05:21:28;;;;;;;0.03;0.03;;;;;;;;;;6235188;23;20044;-53
2022/05/10 05:23:53;;;;;;;0.13;0.13;;;;;;;;;;6235224;23;20238;-55
2022/05/10 05:26:19;;;;;;;0.20;0.20;;;;;;;;;;6234859;23;20174;-55
2022/05/10 05:28:44;;;;;;;0.20;0.20;;;;;;;;;;6234890;23;20012;-54
2022/05/10 05:31:11;;;;;;;1.27;0.95;;;;;;;;;;6234340;23;20016;-55
2022/05/10 05:33:37;;;;;;;0.10;0.10;;;;;;;;;;6235697;23;20016;-54
2022/05/10 05:36:02;;;;;;;0.38;0.35;;;;;;;;;;6235205;23;20020;-52
2022/05/10 05:38:27;;;;;;;0.40;0.40;;;;;;;;;;6235105;23;20012;-54
2022/05/10 05:40:53;;;;;;;0.28;0.20;;;;;;;;;;6235882;23;20012;-56
2022/05/10 05:43:19;;;;;;;0.10;0.10;;;;;;;;;;6234678;23;20020;-54
2022/05/10 05:45:44;;;;;;;0.10;0.10;;;;;;;;;;6238827;23;20013;-53
2022/05/10 05:48:09;;;;;;;0.15;0.15;;;;;;;;;;6235926;23;20027;-55
2022/05/10 05:50:35;;;;;;;0.20;0.20;;;;;;;;;;6236655;23;20012;-55
2022/05/10 05:53:00;;;;;;;0.10;0.10;;;;;;;;;;6235693;23;20016;-51
2022/05/10 05:55:25;;;;;;;0.10;0.10;;;;;;;;;;6236014;23;20024;-55
2022/05/10 05:57:51;;;;;;;0.20;0.20;;;;;;;;;;6211125;23;20222;-54
2022/05/10 06:00:18;;;;;;;0.00;0.00;;;;;;;;;;6235829;23;20031;-54
2022/05/10 06:02:44;;;;;;;0.00;0.00;;;;;;;;;;6237784;23;20023;-55
2022/05/10 06:05:10;;;;;;;0.10;0.10;;;;;;;;;;6237077;23;20016;-56
2022/05/10 06:07:35;;;;;;;0.00;0.00;;;;;;;;;;6236730;23;20012;-55
2022/05/10 06:10:00;;;;;;;0.03;0.03;;;;;;;;;;6237120;23;20019;-56
2022/05/10 06:12:26;;;;;;;0.00;0.00;;;;;;;;;;6237057;23;20020;-56
2022/05/10 06:14:51;;;;;;;0.52;0.52;;;;;;;;;;6236901;23;20423;-54
2022/05/10 06:17:16;;;;;;;0.00;0.00;;;;;;;;;;6234940;23;20019;-56
2022/05/10 06:19:42;;;;;;;0.00;0.00;;;;;;;;;;6210218;23;20007;-54
2022/05/10 06:22:09;;;;;;;0.20;0.20;;;;;;;;;;6236696;23;20067;-55
2022/05/10 06:24:34;;;;;;;0.20;0.20;;;;;;;;;;6237037;23;20031;-55
2022/05/10 06:27:00;;;;;;;0.20;0.20;;;;;;;;;;6209743;23;20039;-55
2022/05/10 06:29:25;;;;;;;0.00;0.00;;;;;;;;;;6235977;23;20065;-53
2022/05/10 06:31:50;;;;;;;0.00;0.00;;;;;;;;;;6234040;23;20012;-56
2022/05/10 06:34:17;;;;;;;0.47;0.10;;;;;;;;;;6231370;23;20027;-57
2022/05/10 06:36:42;;;;;;;0.20;0.20;;;;;;;;;;6232162;23;20075;-53
2022/05/10 06:39:08;;;;;;;0.00;0.00;;;;;;;;;;6221636;23;20012;-56
2022/05/10 06:41:34;;;;;;;1.65;0.45;;;;;;;;;;6223799;23;20005;-56
2022/05/10 06:43:59;;;;;;;0.08;0.08;;;;;;;;;;6219417;23;20019;-55
2022/05/10 06:46:26;;;;;;;0.28;0.10;;;;;;;;;;6224174;23;20016;-55
2022/05/10 06:48:51;;;;;;;0.03;0.03;;;;;;;;;;6234458;23;20152;-55
2022/05/10 06:51:17;;;;;;;0.00;0.00;;;;;;;;;;6235252;23;20197;-55
2022/05/10 06:53:43;;;;;;;0.10;0.10;;;;;;;;;;6235357;23;20012;-56
2022/05/10 06:56:08;;;;;;;0.00;0.00;;;;;;;;;;6236343;23;20035;-56
2022/05/10 06:58:34;;;;;;;0.00;0.00;;;;;;;;;;6234355;23;20016;-56
2022/05/10 07:00:59;;;;;;;0.00;0.00;;;;;;;;;;6226519;23;20099;-53
2022/05/10 07:03:31;;;;;;;0.05;0.05;;;;;;;;;;6234518;23;20355;-53
2022/05/10 07:05:57;;;;;;;0.00;0.00;;;;;;;;;;6235717;23;20389;-53
2022/05/10 07:08:22;;;;;;;0.43;0.43;;;;;;;;;;6234917;23;20020;-54
2022/05/10 07:10:48;;;;;;;0.00;0.00;;;;;;;;;;6235617;23;20067;-54
2022/05/10 07:13:14;;;;;;;0.00;0.00;;;;;;;;;;6236436;23;20371;-55
2022/05/10 07:15:39;;;;;;;0.10;0.10;;;;;;;;;;6232908;23;20020;-56
2022/05/10 07:18:05;;;;;;;2.08;0.40;;;;;;;;;;6235421;23;20008;-57
2022/05/10 07:20:30;;;;;;;0.10;0.10;;;;;;;;;;6235178;23;20028;-54
2022/05/10 07:22:56;;;;;;;0.00;0.00;;;;;;;;;;6208287;23;20023;-54
2022/05/10 07:25:24;;;;;;;0.00;0.00;;;;;;;;;;6235403;23;20376;-55
2022/05/10 07:27:49;;;;;;;0.20;0.20;;;;;;;;;;6235376;23;20067;-56
2022/05/10 07:30:14;;;;;;;0.00;0.00;;;;;;;;;;6235044;23;20039;-56
2022/05/10 07:32:39;;;;;;;0.00;0.00;;;;;;;;;;6233901;23;20064;-54
2022/05/10 07:35:05;;;;;;;0.05;0.05;;;;;;;;;;6234428;23;20034;-55
2022/05/10 07:37:33;;;;;;;0.00;0.00;;;;;;;;;;6236560;23;20258;-54
2022/05/10 07:39:59;;;;;;;0.00;0.00;;;;;;;;;;6234559;23;20020;-55
2022/05/10 07:42:25;;;;;;;0.98;0.17;;;;;;;;;;6234856;23;20420;-56
2022/05/10 07:44:51;;;;;;;0.00;0.00;;;;;;;;;;6228560;23;20020;-51
2022/05/10 07:47:16;;;;;;;0.00;0.00;;;;;;;;;;6227413;23;20345;-57
2022/05/10 07:49:42;;;;;;;0.00;0.00;;;;;;;;;;6229630;23;20780;-55
2022/05/10 07:52:07;;;;;;;0.00;0.00;;;;;;;;;;6230212;23;20050;-54
2022/05/10 07:54:34;;;;;;;0.00;0.00;;;;;;;;;;6228771;23;20011;-56
2022/05/10 07:57:00;;;;;;;0.00;0.00;;;;;;;;;;6232282;23;20027;-56
2022/05/10 07:59:28;;;;;;;0.10;0.10;;;;;;;;;;6227450;23;20081;-55
2022/05/10 08:01:53;;;;;;;0.10;0.10;;;;;;;;;;6232142;23;20008;-54
2022/05/10 08:04:18;;;;;;;0.00;0.00;;;;;;;;;;6228671;23;20086;-56
2022/05/10 08:06:46;;;;;;;0.00;0.00;;;;;;;;;;6231392;23;20008;-57
2022/05/10 08:09:11;;;;;;;0.00;0.00;;;;;;;;;;6218576;23;20047;-54
2022/05/10 08:11:36;;;;;;;4.93;0.80;;;;;;;;;;6225610;23;20016;-56
2022/05/10 08:14:02;;;;;;;0.57;0.32;;;;;;;;;;6226116;23;20064;-58
2022/05/10 08:16:31;;;;;;;0.68;0.47;;;;;;;;;;6231651;23;20039;-58
2022/05/10 08:18:56;;;;;;;0.47;0.40;;;;;;;;;;6230480;23;20370;-59
2022/05/10 08:21:21;;;;;;;0.13;0.13;;;;;;;;;;6228541;23;20253;-58
2022/05/10 08:23:49;;;;;;;0.45;0.35;;;;;;;;;;6233376;23;20012;-59
2022/05/10 08:26:14;;;;;;;0.43;0.43;;;;;;;;;;6231531;23;20016;-59
2022/05/10 08:28:39;;;;;;;0.47;0.30;;;;;;;;;;6208581;23;20050;-58
2022/05/10 08:31:06;;;;;;;0.00;0.00;;;;;;;;;;6206012;23;20810;-58
2022/05/10 08:33:32;;;;;;;0.03;0.03;;;;;;;;;;6235151;23;20015;-58
2022/05/10 08:35:58;;;;;;;0.00;0.00;;;;;;;;;;6205999;23;20423;-58
2022/05/10 08:38:24;;;;;;;0.13;0.13;;;;;;;;;;6234859;23;20467;-58
2022/05/10 08:40:55;;;;;;;0.10;0.10;;;;;;;;;;6233781;23;20024;-58
2022/05/10 08:43:22;;;;;;;0.00;0.00;;;;;;;;;;6234485;23;20089;-55
2022/05/10 08:45:47;;;;;;;0.00;0.00;;;;;;;;;;6232728;23;20012;-58
2022/05/10 08:48:13;;;;;;;0.38;0.25;;;;;;;;;;6231494;23;20023;-57
2022/05/10 08:50:39;;;;;;;0.35;0.35;;;;;;;;;;6232058;23;20482;-58
2022/05/10 08:53:07;;;;;;;0.10;0.10;;;;;;;;;;6234968;23;20016;-58
2022/05/10 08:55:36;;;;;;;2.53;1.35;;;;;;;;;;6232746;23;20013;-57
2022/05/10 08:58:31;;;;;;;0.10;0.10;;;;;;;;;;6235395;23;20040;-56
2022/05/10 09:00:57;;;;;;;0.22;0.22;;;;;;;;;;6202521;23;20012;-57
2022/05/10 09:03:23;;;;;;;0.73;0.20;;;;;;;;;;6206641;23;20078;-57
2022/05/10 09:05:49;;;;;;;1.55;0.35;;;;;;;;;;6236353;23;20039;-57
2022/05/10 09:08:32;;;;;;;0.90;0.22;;;;;;;;;;6233871;23;20741;-58
2022/05/10 09:11:02;;;;;;;0.10;0.10;;;;;;;;;;6208187;23;20035;-55
2022/05/10 09:13:28;;;;;;;0.65;0.08;;;;;;;;;;6234876;23;20016;-55
2022/05/10 09:15:55;;;;;;;0.10;0.10;;;;;;;;;;6202370;23;20055;-56
2022/05/10 09:18:22;;;;;;;10.55;0.80;;;;;;;;;;6226652;23;20012;-57
2022/05/10 09:20:56;;;;;;;1.75;0.38;;;;;;;;;;6210542;23;20018;-56
2022/05/10 09:23:27;;;;;;;0.10;0.10;;;;;;;;;;6233586;23;20018;-56
2022/05/10 09:25:55;;;;;;;0.00;0.00;;;;;;;;;;6237600;23;20031;-55
2022/05/10 09:28:24;;;;;;;2.35;1.92;;;;;;;;;;6233806;23;20016;-56
2022/05/10 09:36:28;;;;;;;0.00;0.00;;;;;;;;;;6235056;23;20140;-56
2022/05/10 09:38:58;;;;;;;0.10;0.10;;;;;;;;;;6238524;23;20013;-56
2022/05/10 09:41:30;;;;;;;0.00;0.00;;;;;;;;;;6235958;23;20012;-55
2022/05/10 09:43:55;;;;;;;0.43;0.30;;;;;;;;;;6238293;23;20012;-56
2022/05/10 09:46:23;;;;;;;0.10;0.10;;;;;;;;;;6233279;23;20071;-55
2022/05/10 09:48:49;;;;;;;0.00;0.00;;;;;;;;;;6211289;23;20426;-54
2022/05/10 09:51:24;;;;;;;0.00;0.00;;;;;;;;;;6234452;23;20039;-56
2022/05/10 09:53:49;;;;;;;0.22;0.22;;;;;;;;;;6235478;23;20008;-55
2022/05/10 09:56:23;;;;;;;0.30;0.30;;;;;;;;;;6230280;23;20027;-55
2022/05/10 09:58:56;;;;;;;0.65;0.40;;;;;;;;;;6227970;23;20024;-56
2022/05/10 10:01:39;;;;;;;1.13;0.30;;;;;;;;;;6233378;23;20016;-60
2022/05/10 10:04:19;;;;;;;0.20;0.15;;;;;;;;;;6234827;23;20023;-56
2022/05/10 10:06:45;;;;;;;1.05;0.08;;;;;;;;;;6237038;23;20012;-57
2022/05/10 10:09:27;;;;;;;3.30;0.38;;;;;;;;;;6228127;23;20008;-57
2022/05/10 10:11:52;;;;;;;1.58;0.57;;;;;;;;;;6235408;23;20020;-56
2022/05/10 10:14:32;;;;;;;0.10;0.10;;;;;;;;;;6234212;23;20037;-58
2022/05/10 10:16:57;;;;;;;0.32;0.20;;;;;;;;;;6236265;23;20024;-57
2022/05/10 10:19:25;;;;;;;0.30;0.30;;;;;;;;;;6236370;23;20015;-56
2022/05/10 10:22:01;;;;;;;1.10;0.88;;;;;;;;;;6229980;23;20008;-56
2022/05/10 10:24:32;;;;;;;6.40;0.47;;;;;;;;;;6235908;23;20046;-57
2022/05/10 10:27:02;;;;;;;3.92;2.17;;;;;;;;;;6233726;23;20016;-56
2022/05/10 10:29:40;;;;;;;0.20;0.20;;;;;;;;;;6235486;23;20019;-54
2022/05/10 10:32:28;;;;;;;2.08;0.10;;;;;;;;;;6236097;23;20016;-55
2022/05/10 10:35:01;;;;;;;0.10;0.10;;;;;;;;;;6234722;23;20022;-57
2022/05/10 10:37:30;;;;;;;0.20;0.20;;;;;;;;;;6236458;23;20023;-57
2022/05/10 10:39:55;;;;;;;;;;;;;;;;;;6235243;23;20429;-56
2022/05/10 10:42:39;;;;;;;7.88;0.65;;;;;;;;;;6208683;23;19919;-54
2022/05/10 10:45:09;;;;;;;1.15;0.60;;;;;;;;;;6235611;23;20024;-56
2022/05/10 10:47:40;;;;;;;0.00;0.00;;;;;;;;;;6236230;23;20011;-55
2022/05/10 10:50:15;;;;;;;3.75;0.47;;;;;;;;;;6233978;23;20050;-58
2022/05/10 10:52:40;;;;;;;0.13;0.13;;;;;;;;;;6209580;23;20016;-57
2022/05/10 10:55:06;;;;;;;0.93;0.85;;;;;;;;;;6234779;23;20154;-55
2022/05/10 10:57:40;;;;;;;0.40;0.40;;;;;;;;;;6233593;23;20100;-56
2022/05/10 11:00:08;;;;;;;13.35;1.02;;;;;;;;;;6171134;23;20029;-56
2022/05/10 11:02:33;;;;;;;0.10;0.10;;;;;;;;;;6173994;23;20055;-56
2022/05/10 11:05:11;;;;;;;0.10;0.10;;;;;;;;;;6176742;23;20674;-57
2022/05/10 11:07:37;;;;;;;0.00;0.00;;;;;;;;;;6176384;23;20503;-56
2022/05/10 11:10:10;;;;;;;0.20;0.20;;;;;;;;;;6175975;23;20044;-57
2022/05/10 11:12:48;;;;;;;0.10;0.10;;;;;;;;;;6175370;23;20013;-56
2022/05/10 11:15:16;;;;;;;2.00;0.40;;;;;;;;;;6176198;23;20017;-56
2022/05/10 11:17:41;;;;;;;0.75;0.45;;;;;;;;;;6176111;23;20009;-56
2022/05/10 11:20:06;;;;;;;1.90;0.30;;;;;;;;;;6176323;23;20071;-55
2022/05/10 11:22:34;;;;;;;0.00;0.00;;;;;;;;;;6175540;23;20326;-55
2022/05/10 11:25:19;;;;;;;0.10;0.10;;;;;;;;;;6176143;23;20023;-55
2022/05/10 11:27:47;;;;;;;0.03;0.03;;;;;;;;;;6176871;23;20040;-55
2022/05/10 11:30:30;;;;;;;0.17;0.17;;;;;;;;;;6174405;23;20017;-56
2022/05/10 11:32:55;;;;;;;0.10;0.10;;;;;;;;;;6174354;23;20043;-55
2022/05/10 11:35:36;;;;;;;0.30;0.30;;;;;;;;;;6175125;23;20049;-55
2022/05/10 11:38:04;;;;;;;0.10;0.10;;;;;;;;;;6173801;23;20013;-53
2022/05/10 11:41:05;;;;;;;0.10;0.10;;;;;;;;;;6175691;23;20558;-54
2022/05/10 11:43:46;;;;;;;0.10;0.10;;;;;;;;;;6112507;23;20025;-54
2022/05/10 11:46:31;;;;;;;0.30;0.30;;;;;;;;;;6169284;23;20028;-56
2022/05/10 11:49:02;;;;;;;0.00;0.00;;;;;;;;;;6174469;23;20024;-56
2022/05/10 11:51:42;;;;;;;0.00;0.00;;;;;;;;;;6170384;23;20084;-56
2022/05/10 11:54:26;;;;;;;0.00;0.00;;;;;;;;;;6174807;23;20071;-55
2022/05/10 11:56:53;;;;;;;0.20;0.20;;;;;;;;;;6173944;23;20069;-55
2022/05/10 11:59:23;;;;;;;0.52;0.10;;;;;;;;;;6218600;23;20072;-54
2022/05/10 12:01:49;;;;;;;0.10;0.10;;;;;;;;;;6237103;23;20012;-55
2022/05/10 12:04:31;;;;;;;0.10;0.10;;;;;;;;;;6234693;23;20013;-56
2022/05/10 12:07:16;;;;;;;0.45;0.45;;;;;;;;;;6235070;23;20051;-57
2022/05/10 12:09:57;;;;;;;0.00;0.00;;;;;;;;;;6229634;23;20067;-55
2022/05/10 12:12:31;;;;;;;0.10;0.10;;;;;;;;;;6233398;23;20023;-55
2022/05/10 12:23:20;;;;;;;0.00;0.00;;;;;;;;;;6233389;23;20026;-57
2022/05/10 12:25:54;;;;;;;0.13;0.13;;;;;;;;;;6236432;23;20036;-54
2022/05/10 12:28:40;;;;;;;0.10;0.10;;;;;;;;;;6233885;23;20299;-58
2022/05/10 12:31:24;;;;;;;4.00;0.30;;;;;;;;;;6235120;23;20059;-57
2022/05/10 12:33:57;;;;;;;0.10;0.10;;;;;;;;;;6207159;23;20565;-57
2022/05/10 12:36:32;;;;;;;0.00;0.00;;;;;;;;;;6234717;23;20081;-57
2022/05/10 12:39:16;;;;;;;0.17;0.17;;;;;;;;;;6223333;23;20012;-57
2022/05/10 12:41:45;;;;;;;0.10;0.10;;;;;;;;;;6231266;23;20012;-57
2022/05/10 12:44:16;;;;;;;3.30;0.38;;;;;;;;;;6230583;23;20012;-57
2022/05/10 12:46:51;;;;;;;0.00;0.00;;;;;;;;;;6230827;23;20014;-56
2022/05/10 12:49:16;;;;;;;0.00;0.00;;;;;;;;;;6231071;23;20012;-58
2022/05/10 12:51:42;;;;;;;0.30;0.30;;;;;;;;;;6230201;23;20011;-56
2022/05/10 12:54:15;;;;;;;1.17;0.10;;;;;;;;;;6231038;23;20020;-56
2022/05/10 12:56:46;;;;;;;0.10;0.10;;;;;;;;;;6201930;23;20020;-57
2022/05/10 12:59:11;;;;;;;0.00;0.00;;;;;;;;;;6229341;23;20032;-55
2022/05/10 13:01:37;;;;;;;0.37;0.37;;;;;;;;;;6204881;23;20019;-56
2022/05/10 13:04:22;;;;;;;0.10;0.10;;;;;;;;;;6226631;23;20249;-56
2022/05/10 13:06:59;;;;;;;5.47;0.28;;;;;;;;;;6232570;23;20019;-57
2022/05/10 13:09:25;;;;;;;0.10;0.10;;;;;;;;;;6229375;23;20023;-57
2022/05/10 13:12:08;;;;;;;0.10;0.10;;;;;;;;;;6209136;23;20016;-56
2022/05/10 13:14:54;;;;;;;0.00;0.00;;;;;;;;;;6229636;23;20063;-57
2022/05/10 13:17:21;;;;;;;0.00;0.00;;;;;;;;;;6232504;23;20024;-55
2022/05/10 13:19:46;;;;;;;0.17;0.17;;;;;;;;;;6236364;23;20086;-57
2022/05/10 13:22:14;;;;;;;0.00;0.00;;;;;;;;;;6233558;23;20013;-57
2022/05/10 13:24:44;;;;;;;0.00;0.00;;;;;;;;;;6235279;23;20004;-57
2022/05/10 13:27:20;;;;;;;0.22;0.10;;;;;;;;;;6208112;23;20452;-56
2022/05/10 13:29:48;;;;;;;1.25;0.10;;;;;;;;;;6236982;23;20023;-55
2022/05/10 13:32:33;;;;;;;0.00;0.00;;;;;;;;;;6206105;23;20009;-53
2022/05/10 13:35:06;;;;;;;0.00;0.00;;;;;;;;;;6234649;23;20076;-57
2022/05/10 13:37:33;;;;;;;0.40;0.20;;;;;;;;;;6235839;23;20012;-56
2022/05/10 13:40:00;;;;;;;0.00;0.00;;;;;;;;;;6233163;23;20470;-57
2022/05/10 13:42:26;;;;;;;1.08;0.52;;;;;;;;;;6235094;23;20016;-57
2022/05/10 13:44:52;;;;;;;0.00;0.00;;;;;;;;;;6234405;23;20063;-57
2022/05/10 13:47:28;;;;;;;0.00;0.00;;;;;;;;;;6235278;23;20048;-57
2022/05/10 13:49:53;;;;;;;0.00;0.00;;;;;;;;;;6232022;23;20451;-57
2022/05/10 13:52:43;;;;;;;0.00;0.00;;;;;;;;;;6234251;23;20840;-55
2022/05/10 13:55:10;;;;;;;;;;;;;;;;;;6230569;23;20051;-56
2022/05/10 13:57:35;;;;;;;0.08;0.08;;;;;;;;;;6235588;23;19968;-56
2022/05/10 14:00:18;;;;;;;0.40;0.10;;;;;;;;;;6198768;23;20020;-57
2022/05/10 14:02:44;;;;;;;2.92;0.38;;;;;;;;;;6233483;23;20012;-57
2022/05/10 14:05:16;;;;;;;0.08;0.08;;;;;;;;;;6233906;23;20337;-57
2022/05/10 14:07:44;;;;;;;0.45;0.30;;;;;;;;;;6232084;23;20004;-57
2022/05/10 14:10:11;;;;;;;0.10;0.10;;;;;;;;;;6209326;23;20016;-54
2022/05/10 14:12:42;;;;;;;0.00;0.00;;;;;;;;;;6237135;22;20020;-55
2022/05/10 14:15:11;;;;;;;0.00;0.00;;;;;;;;;;6237657;23;20090;-54
2022/05/10 14:17:36;;;;;;;0.00;0.00;;;;;;;;;;6235979;23;20016;-56
2022/05/10 14:20:13;;;;;;;0.17;0.17;;;;;;;;;;6237143;23;20258;-57
2022/05/10 14:22:38;;;;;;;0.17;0.08;;;;;;;;;;6235156;23;20004;-56
2022/05/10 14:25:04;;;;;;;0.65;0.20;;;;;;;;;;6210862;23;20072;-57
2022/05/10 14:27:30;;;;;;;0.25;0.10;;;;;;;;;;6231768;23;20008;-57
2022/05/10 14:29:57;;;;;;;1.70;0.28;;;;;;;;;;6235245;23;20012;-55
2022/05/10 14:32:25;;;;;;;0.20;0.20;;;;;;;;;;6206203;23;20016;-57
2022/05/10 14:34:52;;;;;;;0.00;0.00;;;;;;;;;;6237254;23;20426;-57
2022/05/10 14:37:27;;;;;;;1.15;0.93;;;;;;;;;;6233997;23;20027;-56
2022/05/10 14:39:53;;;;;;;11.40;1.40;;;;;;;;;;6236820;23;20013;-56
2022/05/10 14:42:27;;;;;;;0.00;0.00;;;;;;;;;;6232867;23;20907;-57
2022/05/10 14:44:54;;;;;;;0.10;0.10;;;;;;;;;;6237142;23;20030;-58
2022/05/10 14:47:20;;;;;;;0.03;0.03;;;;;;;;;;6233806;23;20012;-58
2022/05/10 14:49:47;;;;;;;0.00;0.00;;;;;;;;;;6236457;23;20392;-57
2022/05/10 14:52:21;;;;;;;3.97;0.57;;;;;;;;;;6233211;23;20016;-56
2022/05/10 14:54:47;;;;;;;0.10;0.10;;;;;;;;;;6237412;23;20011;-57
2022/05/10 14:57:20;;;;;;;0.17;0.17;;;;;;;;;;6234326;23;20031;-57
2022/05/10 14:59:51;;;;;;;0.47;0.38;;;;;;;;;;6229775;23;20024;-57
2022/05/10 15:02:20;;;;;;;0.35;0.35;;;;;;;;;;6233397;23;20074;-57
2022/05/10 15:04:45;;;;;;;0.00;0.00;;;;;;;;;;6234365;23;20008;-56
2022/05/10 15:07:11;;;;;;;0.32;0.32;;;;;;;;;;6209496;23;20039;-55
2022/05/10 15:09:36;;;;;;;0.10;0.10;;;;;;;;;;6234787;23;20008;-56
2022/05/10 15:14:46;;;;;;;0.00;0.00;;;;;;;;;;6236636;23;20027;-56
2022/05/10 15:17:15;;;;;;;0.17;0.10;;;;;;;;;;6235012;23;20024;-57
2022/05/10 15:19:41;;;;;;;0.00;0.00;;;;;;;;;;6233684;23;20004;-57
2022/05/10 15:22:06;;;;;;;0.00;0.00;;;;;;;;;;6233975;23;20016;-57
2022/05/10 15:24:32;;;;;;;0.00;0.00;;;;;;;;;;6235807;23;20019;-55
2022/05/10 15:26:57;;;;;;;1.55;0.38;;;;;;;;;;6231129;23;20008;-57